createdAt,value
2023-02-16T00:00:16.888Z,42.80
2023-02-16T00:02:51.703Z,40.25
2023-02-16T00:05:27.444Z,47.80
2023-02-16T00:08:04.776Z,47.80
2023-02-16T00:10:40.303Z,43.70
2023-02-16T00:13:33.860Z,44.97
2023-02-16T00:16:12.770Z,40.60
2023-02-16T00:18:48.946Z,46.90
2023-02-16T00:21:30.154Z,43.47
2023-02-16T00:24:38.989Z,42.45
2023-02-16T00:27:19.672Z,46.88
2023-02-16T00:30:06.938Z,43.85
2023-02-16T00:58:43.980Z,49.10
2023-02-16T01:33:33.428Z,48.63
2023-02-16T03:51:26.451Z,57.37
2023-02-16T07:32:36.197Z,57.15
2023-02-16T07:35:15.107Z,61.00
2023-02-16T07:37:49.804Z,62.92
2023-02-16T07:40:24.771Z,64.85
2023-02-16T07:43:02.094Z,56.42
2023-02-16T07:45:36.339Z,69.63
2023-02-16T07:48:10.318Z,87.03
2023-02-16T07:50:47.044Z,70.90
2023-02-16T07:53:21.694Z,64.70
2023-02-16T07:55:56.901Z,66.43
2023-02-16T07:58:31.387Z,81.30
2023-02-16T08:01:15.965Z,70.50
2023-02-16T08:03:50.455Z,63.42
2023-02-16T08:06:27.270Z,62.78
2023-02-16T08:09:01.288Z,56.93
2023-02-16T08:11:35.390Z,57.40
2023-02-16T08:14:09.286Z,55.00
2023-02-16T08:16:43.573Z,60.03
2023-02-16T08:19:18.431Z,61.40
2023-02-16T08:21:55.056Z,58.63
2023-02-16T08:24:29.529Z,61.42
2023-02-16T08:27:07.634Z,56.10
2023-02-16T08:29:41.746Z,58.75
2023-02-16T08:32:16.732Z,54.08
2023-02-16T08:34:51.484Z,51.95
2023-02-16T08:37:31.149Z,49.73
2023-02-16T08:40:05.474Z,49.63
2023-02-16T08:42:39.776Z,48.40
2023-02-16T08:45:15.406Z,46.95
2023-02-16T08:47:49.503Z,47.00
2023-02-16T08:50:23.625Z,47.58
2023-02-16T08:53:02.613Z,42.80
2023-02-16T08:55:38.531Z,44.92
2023-02-16T08:58:12.356Z,47.03
2023-02-16T09:00:46.457Z,45.42
2023-02-16T09:03:20.723Z,48.80
2023-02-16T09:05:55.760Z,47.60
2023-02-16T09:08:33.323Z,42.25
2023-02-16T09:11:07.941Z,39.60
2023-02-16T09:13:43.495Z,35.80
2023-02-16T09:16:18.927Z,35.38
2023-02-16T09:18:53.668Z,35.00
2023-02-16T09:21:28.628Z,33.42
2023-02-16T09:24:05.715Z,33.38
2023-02-16T09:26:43.064Z,34.17
2023-02-16T09:29:18.314Z,30.45
2023-02-16T09:31:52.759Z,29.00
2023-02-16T09:34:28.058Z,29.95
2023-02-16T09:37:02.343Z,29.10
2023-02-16T09:39:39.005Z,28.77
2023-02-16T09:42:20.857Z,28.75
2023-02-16T09:44:58.290Z,27.17
2023-02-16T09:47:33.274Z,27.25
2023-02-16T09:50:09.708Z,27.85
2023-02-16T09:52:46.438Z,29.08
2023-02-16T09:55:18.530Z,25.92
2023-02-16T09:58:08.808Z,27.70
2023-02-16T10:00:54.074Z,24.75
2023-02-16T10:03:39.088Z,24.27
2023-02-16T10:06:34.071Z,24.83
2023-02-16T10:09:11.910Z,23.95
2023-02-16T10:11:49.814Z,23.35
2023-02-16T10:14:33.787Z,22.92
2023-02-16T10:17:22.266Z,23.77
2023-02-16T10:19:57.440Z,22.10
2023-02-16T10:22:36.283Z,21.13
2023-02-16T10:25:13.770Z,21.85
2023-02-16T10:27:50.761Z,20.30
2023-02-16T10:30:28.816Z,21.25
2023-02-16T10:33:07.024Z,20.98
2023-02-16T10:35:43.584Z,20.95
2023-02-16T10:38:20.780Z,21.15
2023-02-16T10:40:58.899Z,19.80
2023-02-16T10:43:42.711Z,21.50
2023-02-16T10:46:23.477Z,21.90
2023-02-16T10:48:57.363Z,21.50
2023-02-16T10:51:34.199Z,22.42
2023-02-16T10:54:10.298Z,22.30
2023-02-16T10:59:29.336Z,20.05
2023-02-16T11:02:12.038Z,21.25
2023-02-16T11:04:47.727Z,22.00
2023-02-16T11:07:23.500Z,23.00
2023-02-16T11:09:58.431Z,21.80
2023-02-16T11:12:34.328Z,21.48
2023-02-16T11:15:09.881Z,21.90
2023-02-16T11:17:54.525Z,21.65
2023-02-16T11:20:32.075Z,20.38
2023-02-16T11:23:16.910Z,21.77
2023-02-16T11:25:59.266Z,22.00
2023-02-16T11:28:37.343Z,22.75
2023-02-16T11:31:19.931Z,21.85
2023-02-16T11:34:06.203Z,22.63
2023-02-16T11:36:42.067Z,22.67
2023-02-16T11:39:20.211Z,22.33
2023-02-16T11:41:54.984Z,21.55
2023-02-16T11:44:25.625Z,22.10
2023-02-16T11:46:59.523Z,21.55
2023-02-16T11:49:36.919Z,22.23
2023-02-16T11:52:23.266Z,20.87
2023-02-16T11:54:57.997Z,21.23
2023-02-16T11:57:33.803Z,20.77
2023-02-16T12:00:17.608Z,21.60
2023-02-16T12:03:20.013Z,21.80
2023-02-16T12:06:04.123Z,21.50
2023-02-16T12:08:58.861Z,21.88
2023-02-16T12:11:37.874Z,21.92
2023-02-16T12:14:48.319Z,20.90
2023-02-16T12:17:28.694Z,21.05
2023-02-16T12:20:06.405Z,21.55
2023-02-16T12:22:46.481Z,21.27
2023-02-16T12:25:28.498Z,21.85
2023-02-16T12:28:06.147Z,20.70
2023-02-16T12:30:46.929Z,21.52
2023-02-16T12:33:30.671Z,22.13
2023-02-16T12:36:16.014Z,21.20
2023-02-16T12:38:57.680Z,21.58
2023-02-16T12:41:38.931Z,21.80
2023-02-16T12:44:17.069Z,20.67
2023-02-16T12:46:52.782Z,22.08
2023-02-16T12:49:29.754Z,22.15
2023-02-16T12:52:07.179Z,22.73
2023-02-16T12:54:45.727Z,22.60
2023-02-16T12:57:22.119Z,23.50
2023-02-16T12:59:59.669Z,22.92
2023-02-16T13:02:36.107Z,21.90
2023-02-16T13:05:12.262Z,23.80
2023-02-16T13:07:47.248Z,24.20
2023-02-16T13:10:26.191Z,23.38
2023-02-16T13:13:03.704Z,23.23
2023-02-16T13:15:40.034Z,23.60
2023-02-16T13:18:18.313Z,23.65
2023-02-16T13:20:54.003Z,26.13
2023-02-16T13:23:41.371Z,23.67
2023-02-16T13:26:42.579Z,22.90
2023-02-16T13:29:45.343Z,25.88
2023-02-16T13:32:34.181Z,24.40
2023-02-16T13:35:26.259Z,27.15
2023-02-16T13:38:08.342Z,25.08
2023-02-16T13:41:09.464Z,25.35
2023-02-16T13:43:46.501Z,25.27
2023-02-16T13:46:23.207Z,24.70
2023-02-16T13:48:57.420Z,23.75
2023-02-16T13:51:31.724Z,25.63
2023-02-16T13:54:06.762Z,23.97
2023-02-16T13:56:41.371Z,24.63
2023-02-16T13:59:45.381Z,23.60
2023-02-16T14:02:55.747Z,23.85
2023-02-16T14:05:33.922Z,23.55
2023-02-16T14:08:29.961Z,24.55
2023-02-16T14:11:08.961Z,25.67
2023-02-16T14:13:52.870Z,24.40
2023-02-16T14:16:32.673Z,23.05
2023-02-16T14:19:21.295Z,23.03
2023-02-16T14:21:55.940Z,25.70
2023-02-16T14:24:33.575Z,23.75
2023-02-16T14:27:10.644Z,23.83
2023-02-16T14:29:44.862Z,23.23
2023-02-16T14:32:24.933Z,23.38
2023-02-16T14:35:08.310Z,25.95
2023-02-16T14:37:44.542Z,24.85
2023-02-16T14:40:21.335Z,23.65
2023-02-16T14:42:57.414Z,24.98
2023-02-16T14:48:13.830Z,22.75
2023-02-16T14:50:58.490Z,22.25
2023-02-16T14:54:08.839Z,23.23
2023-02-16T14:56:46.735Z,22.88
2023-02-16T14:59:20.975Z,24.58
2023-02-16T15:01:56.006Z,21.67
2023-02-16T15:04:31.160Z,24.77
2023-02-16T15:07:11.025Z,22.95
2023-02-16T15:09:44.675Z,27.05
2023-02-16T15:12:27.369Z,24.45
2023-02-16T15:15:01.946Z,24.85
2023-02-16T15:17:38.196Z,25.73
2023-02-16T15:20:15.103Z,25.85
2023-02-16T15:22:54.698Z,24.25
2023-02-16T15:25:29.641Z,34.92
2023-02-16T15:28:04.512Z,27.42
2023-02-16T15:30:39.304Z,25.58
2023-02-16T15:33:16.274Z,24.52
2023-02-16T15:35:51.171Z,23.45
2023-02-16T15:38:28.738Z,23.15
2023-02-16T15:41:04.322Z,24.10
2023-02-16T15:43:40.189Z,25.85
2023-02-16T15:46:13.893Z,24.95
2023-02-16T15:48:49.481Z,24.15
2023-02-16T15:51:25.597Z,25.13
2023-02-16T15:56:40.633Z,23.42
2023-02-16T15:59:33.545Z,23.70
2023-02-16T16:02:14.742Z,22.75
2023-02-16T16:04:50.394Z,25.10
2023-02-16T16:07:25.884Z,25.85
2023-02-16T16:10:03.639Z,25.98
2023-02-16T16:12:38.633Z,28.10
2023-02-16T16:15:17.366Z,25.70
2023-02-16T16:17:51.453Z,24.50
2023-02-16T16:20:30.755Z,27.60
2023-02-16T16:23:06.815Z,25.05
2023-02-16T16:28:36.763Z,22.00
2023-02-16T16:31:12.318Z,25.88
2023-02-16T16:33:56.989Z,24.20
2023-02-16T16:36:32.319Z,25.95
2023-02-16T16:39:28.443Z,28.10
2023-02-16T16:41:57.708Z,22.90
2023-02-16T16:44:37.038Z,29.47
2023-02-16T16:47:23.473Z,31.67
2023-02-16T16:49:58.470Z,36.58
2023-02-16T16:52:37.168Z,35.28
2023-02-16T16:55:27.587Z,33.47
2023-02-16T16:58:03.868Z,32.88
2023-02-16T17:00:42.450Z,31.00
2023-02-16T17:03:20.110Z,28.73
2023-02-16T17:05:55.033Z,27.30
2023-02-16T17:08:29.473Z,32.63
2023-02-16T17:11:03.559Z,31.35
2023-02-16T17:13:37.623Z,33.58
2023-02-16T17:16:15.330Z,35.60
2023-02-16T17:18:50.065Z,43.22
2023-02-16T17:21:24.532Z,47.95
2023-02-16T17:23:58.549Z,47.83
2023-02-16T17:26:33.139Z,42.50
2023-02-16T17:29:07.506Z,38.70
2023-02-16T17:31:45.039Z,34.95
2023-02-16T17:34:19.675Z,34.47
2023-02-16T17:36:53.836Z,29.98
2023-02-16T17:39:28.407Z,29.57
2023-02-16T17:42:03.268Z,29.45
2023-02-16T17:44:38.146Z,27.73
2023-02-16T17:47:16.419Z,28.02
2023-02-16T17:49:50.878Z,29.27
2023-02-16T17:52:29.006Z,28.85
2023-02-16T17:55:06.293Z,27.93
2023-02-16T17:57:42.759Z,26.77
2023-02-16T18:00:19.463Z,30.10
2023-02-16T18:02:59.147Z,30.83
2023-02-16T18:05:36.347Z,29.20
2023-02-16T18:08:09.656Z,30.80
2023-02-16T18:10:44.912Z,30.70
2023-02-16T18:13:19.811Z,30.13
2023-02-16T18:15:54.664Z,29.65
2023-02-16T18:18:34.693Z,32.50
2023-02-16T18:21:14.501Z,29.52
2023-02-16T18:23:49.027Z,30.08
2023-02-16T18:26:24.091Z,31.17
2023-02-16T18:29:04.909Z,31.00
2023-02-16T18:31:43.654Z,33.85
2023-02-16T18:34:23.332Z,27.47
2023-02-16T18:36:58.811Z,32.10
2023-02-16T18:39:35.414Z,32.33
2023-02-16T18:42:09.651Z,33.67
2023-02-16T18:44:45.328Z,33.45
2023-02-16T18:47:20.008Z,32.40
2023-02-16T18:49:58.264Z,34.03
2023-02-16T18:52:32.563Z,31.55
2023-02-16T18:55:08.084Z,33.83
2023-02-16T18:57:42.954Z,32.60
2023-02-16T19:00:21.642Z,32.55
2023-02-16T19:02:57.660Z,33.80
2023-02-16T19:05:35.829Z,32.17
2023-02-16T19:08:12.756Z,32.28
2023-02-16T19:10:52.067Z,33.67
2023-02-16T19:13:26.789Z,33.13
2023-02-16T19:15:58.616Z,32.80
2023-02-16T19:18:39.457Z,33.50
2023-02-16T19:21:17.279Z,31.88
2023-02-16T19:24:04.963Z,33.17
2023-02-16T19:26:47.143Z,31.90
2023-02-16T19:29:22.028Z,36.83
2023-02-16T19:31:58.257Z,34.65
2023-02-16T19:34:35.755Z,35.08
2023-02-16T19:37:16.179Z,35.95
2023-02-16T19:39:53.846Z,35.83
2023-02-16T19:42:30.130Z,31.67
2023-02-16T19:47:40.424Z,32.53
2023-02-16T19:50:18.086Z,30.63
2023-02-16T19:52:55.927Z,34.72
2023-02-16T19:55:30.955Z,31.33
2023-02-16T19:58:08.143Z,30.23
2023-02-16T20:00:43.433Z,34.30
2023-02-16T20:03:22.210Z,35.42
2023-02-16T20:06:00.635Z,35.60
2023-02-16T20:08:38.974Z,34.40
2023-02-16T20:11:17.283Z,31.60
2023-02-16T20:13:56.340Z,38.67
2023-02-16T20:16:31.880Z,34.42
2023-02-16T20:19:10.568Z,30.50
2023-02-16T20:21:53.952Z,31.10
2023-02-16T20:24:33.027Z,36.45
2023-02-16T20:27:07.719Z,33.03
2023-02-16T20:29:55.794Z,35.30
2023-02-16T20:32:38.410Z,31.65
2023-02-16T20:35:16.624Z,38.10
2023-02-16T20:40:38.422Z,34.08
2023-02-16T20:43:21.780Z,33.47
2023-02-16T20:46:00.757Z,31.35
2023-02-16T20:48:38.933Z,30.35
2023-02-16T20:51:28.896Z,33.25
2023-02-16T20:54:03.063Z,33.58
2023-02-16T20:56:43.731Z,32.25
2023-02-16T20:59:19.476Z,36.80
2023-02-16T21:01:58.724Z,40.13
2023-02-16T21:04:37.929Z,35.72
2023-02-16T21:07:14.042Z,36.10
2023-02-16T21:12:28.206Z,33.75
2023-02-16T21:15:10.874Z,32.42
2023-02-16T21:17:49.267Z,35.55
2023-02-16T21:20:27.172Z,38.88
2023-02-16T21:23:05.594Z,39.00
2023-02-16T21:25:42.307Z,38.60
2023-02-16T21:28:20.858Z,36.72
2023-02-16T21:30:56.353Z,37.65
2023-02-16T21:33:34.555Z,38.97
2023-02-16T21:36:14.150Z,42.80
2023-02-16T21:38:49.513Z,41.22
2023-02-16T21:41:25.854Z,41.15
2023-02-16T21:44:05.644Z,40.47
2023-02-16T21:46:41.001Z,39.67
2023-02-16T21:49:16.665Z,36.20
2023-02-16T21:51:56.112Z,39.60
2023-02-16T21:54:44.808Z,32.40
2023-02-16T21:57:25.051Z,35.17
2023-02-16T22:00:11.788Z,37.50
2023-02-16T22:02:50.992Z,41.78
2023-02-16T22:05:30.254Z,38.75
2023-02-16T22:08:06.088Z,39.60
2023-02-16T22:10:44.040Z,37.90
2023-02-16T22:13:19.313Z,36.75
2023-02-16T22:16:10.091Z,42.95
2023-02-16T22:18:54.460Z,35.72
2023-02-16T22:21:29.140Z,33.90
2023-02-16T22:24:04.837Z,38.40
2023-02-16T22:26:41.013Z,39.37
2023-02-16T22:31:57.730Z,35.92
2023-02-16T22:34:34.157Z,38.45
2023-02-16T22:37:11.532Z,38.30
2023-02-16T22:39:50.831Z,38.72
2023-02-16T22:42:27.246Z,38.88
2023-02-16T22:45:06.514Z,37.35
2023-02-16T22:47:41.481Z,36.53
2023-02-16T22:50:20.331Z,43.13
2023-02-16T22:52:56.161Z,42.75
2023-02-16T22:55:34.528Z,50.83
2023-02-16T22:58:11.812Z,45.20
2023-02-16T23:00:46.010Z,42.13
2023-02-16T23:03:21.586Z,46.45
2023-02-16T23:05:58.123Z,43.88
2023-02-16T23:08:33.349Z,45.70
2023-02-16T23:11:09.340Z,38.93
2023-02-16T23:13:44.167Z,39.78
2023-02-16T23:16:21.578Z,38.60
2023-02-16T23:18:58.462Z,39.35
2023-02-16T23:24:11.984Z,34.63
2023-02-16T23:26:50.398Z,36.85
2023-02-16T23:29:25.152Z,35.25
2023-02-16T23:32:02.632Z,36.83
2023-02-16T23:37:17.166Z,35.13
2023-02-16T23:39:52.289Z,29.98
2023-02-16T23:42:27.175Z,29.50
2023-02-16T23:45:03.978Z,30.07
2023-02-16T23:47:38.859Z,28.95
2023-02-16T23:50:14.641Z,27.27
2023-02-16T23:52:52.888Z,28.80
2023-02-16T23:55:27.935Z,32.13
2023-02-16T23:58:03.039Z,29.30
